Time;durP1;ratioP1;P1;durP2;ratioP2;P2;SDS_P1;SDS_P2;PMS_P1;PMS_P2;Temp;Humidity;BMP_temperature;BMP_pressure;BME280_temperature;BME280_humidity;BME280_pressure;Samples;Min_cycle;Max_cycle;Signal;HPM_P1;HPM_P2
2022/11/12 00:00:27;;;;;;;17.53;13.57;;;9.20;99.90;;;;;;4993625;28;20179;-69
2022/11/12 00:02:56;;;;;;;18.23;14.53;;;9.10;99.90;;;;;;4993390;28;20179;-68
2022/11/12 00:05:22;;;;;;;17.20;13.63;;;9.10;99.90;;;;;;4991992;28;20172;-69
2022/11/12 00:07:47;;;;;;;18.83;14.97;;;9.10;99.90;;;;;;4993123;28;20229;-68
2022/11/12 00:10:13;;;;;;;18.57;14.67;;;9.20;99.90;;;;;;4993648;28;20230;-68
2022/11/12 00:12:42;;;;;;;20.20;14.43;;;9.20;99.90;;;;;;4993401;28;20182;-68
2022/11/12 00:15:08;;;;;;;25.33;15.67;;;9.10;99.90;;;;;;4993612;28;20247;-68
2022/11/12 00:17:33;;;;;;;17.47;14.30;;;9.10;99.90;;;;;;4993453;28;20207;-68
2022/11/12 00:19:59;;;;;;;19.23;14.70;;;9.10;99.90;;;;;;4993310;28;20175;-68
2022/11/12 00:22:25;;;;;;;24.73;17.37;;;9.00;99.90;;;;;;4993433;28;20167;-68
2022/11/12 00:24:51;;;;;;;27.33;17.13;;;9.00;99.90;;;;;;4975975;28;20218;-67
2022/11/12 00:27:16;;;;;;;32.23;18.10;;;9.00;99.90;;;;;;4993277;28;20207;-68
2022/11/12 00:29:42;;;;;;;27.07;16.10;;;9.00;99.90;;;;;;4993484;28;20280;-69
2022/11/12 00:32:08;;;;;;;25.40;16.80;;;9.00;99.90;;;;;;4993318;28;20267;-68
2022/11/12 00:34:34;;;;;;;24.73;17.30;;;8.90;99.90;;;;;;4992700;28;20605;-68
2022/11/12 00:37:00;;;;;;;17.90;14.93;;;8.90;99.90;;;;;;4993356;28;20234;-67
2022/11/12 00:39:26;;;;;;;20.93;15.83;;;8.90;99.90;;;;;;4993255;28;20183;-68
2022/11/12 00:41:52;;;;;;;18.30;15.10;;;8.80;99.90;;;;;;4993297;28;20175;-68
2022/11/12 00:44:18;;;;;;;18.60;15.03;;;8.90;99.90;;;;;;4995020;28;20175;-68
2022/11/12 00:46:47;;;;;;;21.97;15.30;;;8.90;99.90;;;;;;4996708;28;20702;-67
2022/11/12 00:49:13;;;;;;;20.83;14.47;;;8.80;99.90;;;;;;4995273;28;20288;-67
2022/11/12 00:51:40;;;;;;;20.83;14.97;;;8.70;99.90;;;;;;4996767;28;20534;-68
2022/11/12 00:54:09;;;;;;;17.17;13.83;;;8.70;99.90;;;;;;4996638;28;20183;-69
2022/11/12 00:56:34;;;;;;;17.90;14.17;;;8.60;99.90;;;;;;4996807;28;20171;-68
2022/11/12 00:59:03;;;;;;;21.17;14.00;;;8.60;99.90;;;;;;4996609;28;20225;-68
2022/11/12 01:01:31;;;;;;;15.77;12.70;;;8.60;99.90;;;;;;4996933;28;20183;-69
2022/11/12 01:03:58;;;;;;;17.77;13.30;;;8.50;99.90;;;;;;4995008;28;20175;-68
2022/11/12 01:06:24;;;;;;;19.53;14.27;;;8.50;99.90;;;;;;4996562;28;20294;-68
2022/11/12 01:08:50;;;;;;;16.33;12.53;;;8.40;99.90;;;;;;4996306;28;20599;-68
2022/11/12 01:11:25;;;;;;;19.13;13.40;;;8.50;99.90;;;;;;4996360;28;20282;-68
2022/11/12 01:13:59;;;;;;;18.77;13.57;;;8.50;99.90;;;;;;4996454;28;20175;-68
2022/11/12 01:16:29;;;;;;;17.50;13.60;;;8.50;99.90;;;;;;4996124;28;20646;-67
2022/11/12 01:19:02;;;;;;;18.23;13.93;;;8.50;99.90;;;;;;4996365;28;20343;-67
2022/11/12 01:21:30;;;;;;;18.73;13.70;;;8.50;99.90;;;;;;4996262;28;20225;-67
2022/11/12 01:23:57;;;;;;;18.10;13.57;;;8.50;99.90;;;;;;4996062;28;20253;-67
2022/11/12 01:26:27;;;;;;;19.17;13.60;;;8.40;99.90;;;;;;4996019;28;20218;-67
2022/11/12 01:28:56;;;;;;;16.23;12.87;;;8.30;99.90;;;;;;4996168;28;20175;-68
2022/11/12 01:31:32;;;;;;;19.43;14.00;;;8.30;99.90;;;;;;4995710;28;20650;-67
2022/11/12 01:34:07;;;;;;;22.93;16.20;;;8.20;99.90;;;;;;4995897;28;20218;-67
2022/11/12 01:36:35;;;;;;;20.00;13.57;;;8.20;99.90;;;;;;4995737;28;20648;-67
2022/11/12 01:39:08;;;;;;;16.40;13.27;;;8.10;99.90;;;;;;4995964;28;20167;-67
2022/11/12 01:41:39;;;;;;;18.90;14.43;;;8.20;99.90;;;;;;4995843;28;20171;-68
2022/11/12 01:44:09;;;;;;;17.57;14.17;;;8.20;99.90;;;;;;4995845;28;20175;-67
2022/11/12 01:46:44;;;;;;;18.27;13.90;;;8.20;99.90;;;;;;4995362;28;20224;-67
2022/11/12 01:49:15;;;;;;;18.53;14.23;;;8.20;99.90;;;;;;4995613;28;20182;-67
2022/11/12 01:51:45;;;;;;;18.23;14.10;;;8.20;99.90;;;;;;4995654;28;20182;-67
2022/11/12 01:54:17;;;;;;;18.20;14.23;;;8.20;99.90;;;;;;4995321;28;20299;-66
2022/11/12 01:56:43;;;;;;;19.30;14.27;;;8.20;99.90;;;;;;4995617;28;20179;-67
2022/11/12 01:59:16;;;;;;;20.13;14.17;;;8.20;99.90;;;;;;4995517;28;20222;-67
2022/11/12 02:01:44;;;;;;;25.30;14.10;;;8.10;99.90;;;;;;4995038;28;20234;-67
2022/11/12 02:04:10;;;;;;;16.00;13.27;;;8.10;99.90;;;;;;4994591;28;20219;-67
2022/11/12 02:06:39;;;;;;;18.77;13.23;;;8.00;99.90;;;;;;4995374;28;20207;-67
2022/11/12 02:09:05;;;;;;;20.53;15.87;;;7.90;99.90;;;;;;4995321;28;20282;-67
2022/11/12 02:11:31;;;;;;;20.77;15.47;;;7.90;99.90;;;;;;4994023;28;20213;-67
2022/11/12 02:13:57;;;;;;;17.30;14.33;;;7.90;99.90;;;;;;4994990;28;20628;-67
2022/11/12 02:16:40;;;;;;;15.90;13.10;;;7.90;99.90;;;;;;4994840;28;20168;-67
2022/11/12 02:19:08;;;;;;;17.33;13.60;;;7.90;99.90;;;;;;4995450;28;20175;-67
2022/11/12 02:21:34;;;;;;;16.30;13.30;;;7.90;99.90;;;;;;4995026;28;20195;-67
2022/11/12 02:24:20;;;;;;;18.07;13.50;;;7.90;99.90;;;;;;4994992;28;20257;-68
2022/11/12 02:26:52;;;;;;;16.37;12.90;;;7.90;99.90;;;;;;4991011;28;20675;-67
2022/11/12 02:29:17;;;;;;;14.10;12.60;;;7.90;99.90;;;;;;4994648;28;20647;-67
2022/11/12 02:31:43;;;;;;;14.80;12.27;;;7.80;99.90;;;;;;4994830;28;20171;-68
2022/11/12 02:34:08;;;;;;;15.77;12.43;;;7.70;99.90;;;;;;4994754;28;20222;-68
2022/11/12 02:36:34;;;;;;;19.70;13.67;;;7.80;99.90;;;;;;4994878;28;20214;-68
2022/11/12 02:39:00;;;;;;;16.77;13.60;;;7.80;99.90;;;;;;4993520;28;20185;-67
2022/11/12 02:41:25;;;;;;;15.03;13.10;;;7.80;99.90;;;;;;4994629;28;20561;-67
2022/11/12 02:43:51;;;;;;;18.07;13.77;;;7.80;99.90;;;;;;4994353;28;20631;-67
2022/11/12 02:46:17;;;;;;;17.37;13.60;;;7.80;99.90;;;;;;4994597;28;20261;-68
2022/11/12 02:48:43;;;;;;;16.60;12.50;;;7.80;99.90;;;;;;4994694;28;20543;-67
2022/11/12 02:51:09;;;;;;;14.33;12.60;;;7.80;99.90;;;;;;4994575;28;20183;-67
2022/11/12 02:53:34;;;;;;;17.03;12.70;;;7.70;99.90;;;;;;4994494;28;20175;-68
2022/11/12 02:56:00;;;;;;;17.23;13.27;;;7.70;99.90;;;;;;4994467;28;20613;-67
2022/11/12 02:58:32;;;;;;;13.77;12.30;;;7.70;99.90;;;;;;4993027;28;20177;-69
2022/11/12 03:00:57;;;;;;;17.17;12.43;;;7.60;99.90;;;;;;4994475;28;20694;-68
2022/11/12 03:03:23;;;;;;;16.00;12.37;;;7.60;99.90;;;;;;4994381;28;20167;-68
2022/11/12 03:06:00;;;;;;;15.83;12.57;;;7.60;99.90;;;;;;4993851;28;20175;-68
2022/11/12 03:08:26;;;;;;;14.47;12.80;;;7.60;99.90;;;;;;4993997;28;20210;-68
2022/11/12 03:10:51;;;;;;;18.07;12.63;;;7.70;99.90;;;;;;4994252;28;20167;-69
2022/11/12 03:13:17;;;;;;;14.73;12.47;;;7.70;99.90;;;;;;4993903;28;20171;-68
2022/11/12 03:15:43;;;;;;;14.13;11.73;;;7.80;99.90;;;;;;4994274;28;20179;-68
2022/11/12 03:18:08;;;;;;;15.03;12.60;;;7.70;99.90;;;;;;4994240;28;20661;-68
2022/11/12 03:20:34;;;;;;;15.07;12.30;;;7.70;99.90;;;;;;4994140;28;20176;-67
2022/11/12 03:23:02;;;;;;;15.83;13.53;;;7.80;99.90;;;;;;4993846;28;20185;-68
2022/11/12 03:25:28;;;;;;;15.87;12.63;;;7.80;99.90;;;;;;4993888;28;20172;-68
2022/11/12 03:28:17;;;;;;;20.27;13.13;;;7.80;99.90;;;;;;4993517;28;20293;-69
2022/11/12 03:30:44;;;;;;;15.77;11.73;;;7.80;99.90;;;;;;4972414;28;20188;-69
2022/11/12 03:33:12;;;;;;;14.93;12.00;;;7.70;99.90;;;;;;4972323;28;20183;-68
2022/11/12 03:35:38;;;;;;;14.97;11.90;;;7.80;99.90;;;;;;4972121;28;20234;-69
2022/11/12 03:38:07;;;;;;;14.00;11.43;;;7.70;99.90;;;;;;4971863;28;20190;-68
2022/11/12 03:40:38;;;;;;;15.27;12.00;;;7.70;99.90;;;;;;4972254;28;20233;-68
2022/11/12 03:43:07;;;;;;;16.20;12.73;;;7.70;99.90;;;;;;4972019;28;20184;-69
2022/11/12 03:45:36;;;;;;;15.87;12.43;;;7.70;99.90;;;;;;4972420;28;20176;-68
2022/11/12 03:48:01;;;;;;;16.80;13.47;;;7.70;99.90;;;;;;4955824;28;20732;-67
2022/11/12 03:50:28;;;;;;;15.83;12.53;;;7.70;99.90;;;;;;4972427;28;20172;-69
2022/11/12 03:52:58;;;;;;;13.13;11.83;;;7.70;99.90;;;;;;4972174;28;20543;-68
2022/11/12 03:55:26;;;;;;;12.47;11.07;;;7.60;99.90;;;;;;4972246;28;20296;-68
2022/11/12 03:57:52;;;;;;;12.97;11.47;;;7.60;99.90;;;;;;4971701;28;20219;-68
2022/11/12 04:00:18;;;;;;;16.50;11.40;;;7.50;99.90;;;;;;4972101;28;20186;-70
2022/11/12 04:02:47;;;;;;;12.83;11.47;;;7.50;99.90;;;;;;4972095;28;20176;-68
2022/11/12 04:10:47;;;;;;;13.33;11.93;;;7.40;99.90;;;;;;4993426;28;20605;-68
2022/11/12 04:13:27;;;;;;;16.47;11.97;;;7.40;99.90;;;;;;4993394;28;20171;-69
2022/11/12 04:26:21;;;;;;;13.33;11.43;;;7.20;99.90;;;;;;4997593;28;20694;-68
2022/11/12 04:26:58;;;;;;;14.10;11.37;;;7.30;99.90;;;;;;4996814;28;20215;-67
2022/11/12 04:32:08;;;;;;;16.07;12.40;;;7.20;99.90;;;;;;4997208;28;20218;-67
2022/11/12 04:34:34;;;;;;;16.57;13.63;;;7.30;99.90;;;;;;4996891;28;20254;-67
2022/11/12 04:37:02;;;;;;;16.00;12.77;;;7.40;99.90;;;;;;4995764;28;20218;-68
2022/11/12 04:39:27;;;;;;;13.83;12.13;;;7.40;99.90;;;;;;4996138;28;20175;-68
2022/11/12 04:47:29;;;;;;;14.63;10.93;;;7.30;99.90;;;;;;4996921;28;20217;-67
2022/11/12 04:49:56;;;;;;;13.83;11.70;;;7.30;99.90;;;;;;4996836;28;20262;-68
2022/11/12 04:52:22;;;;;;;14.47;12.00;;;7.40;99.90;;;;;;4996506;28;20229;-67
2022/11/12 04:54:47;;;;;;;17.73;13.67;;;7.40;99.90;;;;;;4996403;28;20643;-68
2022/11/12 04:57:13;;;;;;;14.37;12.03;;;7.40;99.90;;;;;;4995301;28;20582;-68
2022/11/12 04:59:39;;;;;;;11.47;10.20;;;7.40;99.90;;;;;;4996516;28;20191;-69
2022/11/12 05:02:07;;;;;;;13.33;10.80;;;7.40;99.90;;;;;;4996214;28;20171;-69
2022/11/12 05:04:32;;;;;;;12.80;9.70;;;7.50;99.90;;;;;;4996174;28;20203;-68
2022/11/12 05:06:58;;;;;;;13.30;10.40;;;7.50;99.90;;;;;;4995916;28;20241;-68
2022/11/12 05:09:27;;;;;;;11.90;10.20;;;7.50;99.90;;;;;;4994596;28;20192;-69
2022/11/12 05:11:55;;;;;;;13.57;11.63;;;7.50;99.90;;;;;;4996125;28;20172;-68
2022/11/12 05:14:22;;;;;;;14.57;11.77;;;7.40;99.90;;;;;;4994929;28;20511;-68
2022/11/12 05:16:47;;;;;;;14.23;10.13;;;7.30;99.90;;;;;;4996347;28;20213;-69
2022/11/12 05:19:16;;;;;;;13.03;10.40;;;7.20;99.90;;;;;;4994769;28;20199;-68
2022/11/12 05:24:38;;;;;;;12.77;10.50;;;7.20;99.90;;;;;;4995883;28;20654;-67
2022/11/12 05:27:07;;;;;;;12.83;10.07;;;7.20;99.90;;;;;;4995970;28;20326;-67
2022/11/12 05:29:33;;;;;;;11.03;9.93;;;7.10;99.90;;;;;;4995077;28;20217;-68
2022/11/12 05:31:59;;;;;;;13.67;10.30;;;7.10;99.90;;;;;;4995849;28;20171;-68
2022/11/12 05:34:24;;;;;;;17.53;11.40;;;7.00;99.90;;;;;;4995589;28;20687;-67
2022/11/12 05:36:50;;;;;;;13.90;10.90;;;7.00;99.90;;;;;;4995671;28;20167;-68
2022/11/12 05:39:16;;;;;;;12.87;10.97;;;7.00;99.90;;;;;;4995466;28;20167;-67
2022/11/12 05:41:42;;;;;;;14.90;11.57;;;6.90;99.90;;;;;;4994117;28;20175;-67
2022/11/12 05:44:07;;;;;;;16.40;11.30;;;6.90;99.90;;;;;;4994392;28;20538;-67
2022/11/12 05:46:33;;;;;;;13.53;10.93;;;6.90;99.90;;;;;;4995279;28;20290;-67
2022/11/12 05:48:58;;;;;;;15.03;10.90;;;6.90;99.90;;;;;;4995684;28;20662;-67
2022/11/12 05:51:24;;;;;;;16.83;11.57;;;6.80;99.90;;;;;;4994135;28;20178;-68
2022/11/12 05:53:50;;;;;;;12.83;11.03;;;6.90;99.90;;;;;;4995148;28;20194;-68
2022/11/12 05:56:18;;;;;;;16.30;11.50;;;6.90;99.90;;;;;;4994666;28;20198;-67
2022/11/12 05:58:43;;;;;;;14.73;10.70;;;7.00;99.90;;;;;;4995350;28;20172;-67
2022/11/12 06:01:09;;;;;;;14.67;11.37;;;7.10;99.90;;;;;;4994825;28;20198;-68
2022/11/12 06:03:35;;;;;;;18.40;11.77;;;7.10;99.90;;;;;;4995435;28;20247;-68
2022/11/12 06:06:00;;;;;;;17.77;11.57;;;7.10;99.90;;;;;;4994807;28;20179;-67
2022/11/12 06:08:26;;;;;;;12.17;10.93;;;7.10;99.90;;;;;;4994725;28;20191;-66
2022/11/12 06:10:53;;;;;;;12.43;11.13;;;7.00;99.90;;;;;;4994914;28;20561;-68
2022/11/12 06:13:21;;;;;;;13.33;10.63;;;7.00;99.90;;;;;;4994619;28;20254;-68
2022/11/12 06:15:46;;;;;;;12.53;10.53;;;6.90;99.90;;;;;;4995214;28;20175;-67
2022/11/12 06:18:13;;;;;;;13.37;11.00;;;6.80;99.90;;;;;;4994339;28;20690;-67
2022/11/12 06:20:38;;;;;;;16.70;10.90;;;6.80;99.90;;;;;;4994811;28;20205;-67
2022/11/12 06:23:04;;;;;;;13.07;11.27;;;6.90;99.90;;;;;;4994407;28;20179;-66
2022/11/12 06:25:30;;;;;;;18.17;11.57;;;7.00;99.90;;;;;;4994844;28;20168;-67
2022/11/12 06:27:55;;;;;;;13.03;11.63;;;7.10;99.90;;;;;;4994804;28;20545;-68
2022/11/12 06:30:21;;;;;;;14.83;10.83;;;7.10;99.90;;;;;;4994500;28;20270;-68
2022/11/12 06:32:48;;;;;;;15.13;11.10;;;7.00;99.90;;;;;;4994648;28;20202;-68
2022/11/12 06:35:14;;;;;;;15.53;10.93;;;6.90;99.90;;;;;;4993927;28;20609;-68
2022/11/12 06:37:46;;;;;;;14.20;10.73;;;6.90;99.90;;;;;;4994642;28;20229;-68
2022/11/12 06:40:15;;;;;;;16.07;12.17;;;7.00;99.90;;;;;;4994602;28;20167;-68
2022/11/12 06:42:40;;;;;;;16.23;11.80;;;7.00;99.90;;;;;;4992946;28;20180;-68
2022/11/12 06:45:06;;;;;;;17.60;11.50;;;7.10;99.90;;;;;;4994257;28;20536;-68
2022/11/12 06:47:32;;;;;;;17.63;12.93;;;7.10;99.90;;;;;;4994369;28;20294;-68
2022/11/12 06:49:58;;;;;;;21.37;12.30;;;7.20;99.90;;;;;;4994028;28;20249;-67
2022/11/12 06:52:23;;;;;;;18.37;12.83;;;7.30;99.90;;;;;;4992660;28;20186;-68
2022/11/12 06:54:49;;;;;;;16.87;12.70;;;7.30;99.90;;;;;;4993042;28;20172;-68
2022/11/12 06:57:14;;;;;;;16.67;12.33;;;7.30;99.90;;;;;;4994242;28;20172;-68
2022/11/12 06:59:40;;;;;;;15.10;12.13;;;7.30;99.90;;;;;;4992370;28;20198;-68
2022/11/12 07:02:05;;;;;;;15.23;11.97;;;7.30;99.90;;;;;;4993058;28;20175;-67
2022/11/12 07:04:31;;;;;;;18.33;12.40;;;7.20;99.90;;;;;;4993619;28;20599;-67
2022/11/12 07:06:57;;;;;;;15.90;11.50;;;7.20;99.90;;;;;;4993741;28;20211;-67
2022/11/12 07:09:22;;;;;;;14.13;11.87;;;7.20;99.90;;;;;;4993599;28;20183;-67
2022/11/12 07:11:48;;;;;;;17.93;12.03;;;7.30;99.90;;;;;;4993829;28;20249;-68
2022/11/12 07:14:13;;;;;;;22.07;12.13;;;7.40;99.90;;;;;;4993685;28;20262;-67
2022/11/12 07:16:39;;;;;;;21.37;12.80;;;7.50;99.90;;;;;;4993746;28;20172;-67
2022/11/12 07:19:05;;;;;;;17.30;12.17;;;7.60;99.90;;;;;;4993670;28;20699;-68
2022/11/12 07:21:30;;;;;;;16.97;12.30;;;7.70;99.90;;;;;;4993702;28;20175;-67
2022/11/12 07:23:56;;;;;;;16.87;11.90;;;7.80;99.90;;;;;;4993905;28;20249;-68
2022/11/12 07:26:26;;;;;;;13.47;11.83;;;8.00;99.90;;;;;;4993617;28;20207;-68
2022/11/12 07:28:52;;;;;;;13.53;10.57;;;8.30;99.90;;;;;;4993485;28;20171;-68
2022/11/12 07:31:27;;;;;;;14.93;11.10;;;8.50;99.90;;;;;;4993841;28;20758;-68
2022/11/12 07:33:52;;;;;;;13.47;11.10;;;9.00;99.90;;;;;;4993067;28;20214;-68
2022/11/12 07:36:20;;;;;;;14.30;11.60;;;9.60;99.90;;;;;;4993480;28;20193;-68
2022/11/12 07:38:46;;;;;;;18.57;12.83;;;10.00;99.90;;;;;;4993706;28;20178;-69
2022/11/12 07:41:17;;;;;;;17.37;11.07;;;10.10;99.90;;;;;;4993052;28;20218;-68
2022/11/12 07:43:45;;;;;;;14.37;9.80;;;11.00;99.90;;;;;;4993216;28;20277;-69
2022/11/12 07:46:13;;;;;;;13.27;9.10;;;11.70;99.90;;;;;;4992765;28;20179;-69
2022/11/12 07:48:39;;;;;;;15.40;9.17;;;12.60;99.90;;;;;;4992857;28;20636;-68
2022/11/12 07:51:26;;;;;;;12.77;9.20;;;13.50;99.90;;;;;;4992857;28;20230;-68
2022/11/12 07:53:54;;;;;;;11.00;8.90;;;14.70;99.90;;;;;;4998742;28;20277;-68
2022/11/12 07:56:22;;;;;;;17.60;9.77;;;15.50;99.90;;;;;;4998494;28;20573;-69
2022/11/12 07:58:49;;;;;;;13.80;8.73;;;16.10;99.90;;;;;;4999773;28;20187;-69
2022/11/12 08:01:35;;;;;;;14.30;8.47;;;16.50;99.90;;;;;;4999377;28;20174;-69
2022/11/12 08:04:04;;;;;;;10.23;8.50;;;17.00;99.90;;;;;;4999514;28;20177;-70
2022/11/12 08:06:31;;;;;;;10.17;7.73;;;17.10;99.90;;;;;;4999256;28;20230;-70
2022/11/12 08:08:58;;;;;;;9.67;8.10;;;16.90;99.90;;;;;;4999580;28;20187;-70
2022/11/12 08:11:24;;;;;;;19.88;12.85;;;17.10;99.90;;;;;;4999494;28;20694;-71
2022/11/12 08:13:50;;;;;;;16.20;10.57;;;17.50;99.30;;;;;;4999846;28;20175;-70
2022/11/12 08:16:16;;;;;;;9.35;7.57;;;17.90;98.10;;;;;;4999585;28;20175;-70
2022/11/12 08:18:46;;;;;;;9.85;7.63;;;18.20;97.50;;;;;;4998868;28;20229;-71
2022/11/12 08:21:13;;;;;;;11.82;8.35;;;18.60;96.60;;;;;;4999663;28;20218;-70
2022/11/12 08:23:39;;;;;;;12.23;7.53;;;18.80;95.60;;;;;;4999953;28;20167;-71
2022/11/12 08:26:07;;;;;;;11.68;8.02;;;18.70;95.40;;;;;;4999121;28;20225;-70
2022/11/12 08:28:35;;;;;;;10.60;7.10;;;19.30;94.60;;;;;;4999777;28;20180;-70
2022/11/12 08:31:06;;;;;;;10.05;8.60;;;19.20;94.20;;;;;;4999217;28;20178;-71
2022/11/12 08:33:32;;;;;;;12.82;8.07;;;19.90;93.60;;;;;;4998862;28;20176;-71
2022/11/12 08:36:01;;;;;;;11.55;9.35;;;20.10;92.60;;;;;;4999417;28;20175;-71
2022/11/12 08:38:26;;;;;;;17.02;11.73;;;20.90;91.50;;;;;;4999579;28;20225;-70
2022/11/12 08:40:53;;;;;;;13.55;9.90;;;21.70;88.60;;;;;;4999349;28;20230;-70
2022/11/12 08:43:19;;;;;;;11.05;8.90;;;22.20;84.80;;;;;;4999054;28;20209;-70
2022/11/12 08:45:45;;;;;;;12.43;9.32;;;22.30;83.80;;;;;;4998762;28;20234;-70
2022/11/12 08:48:15;;;;;;;13.40;9.10;;;22.40;81.60;;;;;;4999000;28;20207;-71
2022/11/12 08:50:41;;;;;;;10.73;9.20;;;22.80;79.60;;;;;;4999510;28;20183;-70
2022/11/12 08:53:12;;;;;;;11.55;9.32;;;22.90;77.80;;;;;;4999285;28;20187;-70
2022/11/12 08:55:38;;;;;;;13.32;8.82;;;23.10;76.20;;;;;;4998930;28;20177;-70
2022/11/12 08:58:04;;;;;;;14.68;9.57;;;23.20;1.00;;;;;;4998902;28;20608;-70
2022/11/12 09:00:35;;;;;;;12.50;9.20;;;23.10;1.00;;;;;;4999136;28;20198;-71
2022/11/12 09:03:06;;;;;;;14.40;9.45;;;23.40;1.00;;;;;;4998180;28;20183;-71
2022/11/12 09:05:35;;;;;;;10.38;9.13;;;23.60;1.00;;;;;;4995194;28;20263;-70
2022/11/12 09:08:04;;;;;;;10.02;8.90;;;23.50;1.00;;;;;;4995740;28;20211;-71
2022/11/12 09:10:30;;;;;;;12.70;9.82;;;23.40;1.00;;;;;;4996218;28;20163;-70
2022/11/12 09:12:55;;;;;;;14.15;9.43;;;23.20;1.00;;;;;;4994291;28;20237;-70
2022/11/12 09:15:23;;;;;;;13.45;9.10;;;23.30;1.00;;;;;;4996084;28;20620;-70
2022/11/12 09:17:55;;;;;;;12.60;9.63;;;23.50;1.00;;;;;;4995448;28;20186;-70
2022/11/12 09:20:20;;;;;;;11.63;9.75;;;23.90;1.00;;;;;;4995798;28;20186;-70
2022/11/12 09:22:48;;;;;;;11.68;9.38;;;24.10;1.00;;;;;;4995989;28;20205;-70
2022/11/12 09:25:14;;;;;;;10.65;9.52;;;24.10;99.90;;;;;;4996241;28;20311;-71
2022/11/12 09:27:39;;;;;;;12.88;9.98;;;23.80;1.00;;;;;;4995763;28;20224;-71
2022/11/12 09:30:06;;;;;;;11.27;9.43;;;23.50;1.00;;;;;;4995591;28;20171;-72
2022/11/12 09:32:32;;;;;;;10.07;8.90;;;23.30;1.00;;;;;;4994977;28;20190;-71
2022/11/12 09:34:57;;;;;;;16.77;8.93;;;23.40;1.00;;;;;;4995447;28;20297;-70
2022/11/12 09:37:23;;;;;;;10.50;8.73;;;23.90;1.00;;;;;;4994446;28;20187;-71
2022/11/12 09:39:48;;;;;;;11.30;8.80;;;23.90;1.00;;;;;;4995748;28;20207;-71
2022/11/12 09:42:18;;;;;;;10.70;8.63;;;23.80;1.00;;;;;;4994159;28;20697;-71
2022/11/12 09:44:52;;;;;;;9.10;8.13;;;23.70;1.00;;;;;;4993663;28;20719;-72
2022/11/12 09:47:23;;;;;;;11.32;8.20;;;23.90;1.00;;;;;;4995345;28;20206;-71
2022/11/12 09:50:14;;;;;;;13.00;8.57;;;23.80;1.00;;;;;;4995289;28;20182;-71
2022/11/12 09:52:42;;;;;;;9.75;8.80;;;23.60;1.00;;;;;;4995089;28;20182;-72
2022/11/12 09:55:11;;;;;;;9.77;8.77;;;23.70;1.00;;;;;;4995170;28;20250;-72
2022/11/12 09:57:37;;;;;;;10.00;8.73;;;23.50;1.00;;;;;;4995444;28;20234;-72
2022/11/12 10:00:18;;;;;;;13.48;9.65;;;23.80;1.00;;;;;;4994499;28;20172;-72
2022/11/12 10:03:19;;;;;;;8.50;7.47;;;24.30;1.00;;;;;;4995233;28;20179;-71
2022/11/12 10:05:58;;;;;;;7.40;6.20;;;23.70;1.00;;;;;;4993557;28;20232;-71
2022/11/12 10:08:43;;;;;;;9.63;6.63;;;23.90;1.00;;;;;;4994957;28;20202;-72
2022/11/12 10:12:30;;;;;;;6.90;6.30;;;24.10;1.00;;;;;;4993801;28;20171;-73
2022/11/12 10:14:38;;;;;;;9.98;7.93;;;24.50;1.00;;;;;;4994701;28;20179;-72
2022/11/12 10:17:18;;;;;;;9.85;7.45;;;25.40;99.90;;;;;;4994286;28;20309;-73
2022/11/12 10:19:44;;;;;;;7.93;7.15;;;25.70;99.90;;;;;;4994903;28;20709;-73
2022/11/12 10:22:35;;;;;;;10.88;6.40;;;26.10;99.90;;;;;;4994993;28;20187;-72
2022/11/12 10:25:13;;;;;;;6.68;5.80;;;26.10;99.90;;;;;;4994895;28;20172;-72
2022/11/12 10:27:40;;;;;;;6.47;5.47;;;25.90;99.90;;;;;;4993131;28;20246;-73
2022/11/12 10:30:20;;;;;;;5.93;5.38;;;25.90;99.90;;;;;;4994345;28;20213;-72
2022/11/12 10:32:47;;;;;;;6.10;5.03;;;26.00;99.90;;;;;;4994638;28;20172;-73
2022/11/12 10:35:17;;;;;;;7.47;6.13;;;25.40;99.90;;;;;;4992889;28;20643;-72
2022/11/12 10:37:48;;;;;;;6.50;5.32;;;25.60;99.90;;;;;;4994869;28;20214;-73
2022/11/12 10:40:20;;;;;;;5.55;5.18;;;25.10;99.90;;;;;;4994550;28;20218;-72
2022/11/12 10:43:05;;;;;;;5.93;5.38;;;25.20;99.90;;;;;;4994112;28;20224;-72
2022/11/12 10:45:31;;;;;;;6.30;5.15;;;24.30;99.90;;;;;;4993888;28;20175;-73
2022/11/12 10:47:58;;;;;;;5.63;5.13;;;23.90;1.00;;;;;;4994168;28;20230;-72
2022/11/12 10:50:40;;;;;;;4.05;3.80;;;24.30;1.00;;;;;;4993841;28;20159;-73
2022/11/12 10:53:09;;;;;;;5.20;4.80;;;24.30;1.00;;;;;;4994346;28;20211;-72
2022/11/12 10:55:37;;;;;;;5.20;4.70;;;24.10;1.00;;;;;;4994170;28;20167;-72
2022/11/12 10:58:09;;;;;;;4.80;4.43;;;24.30;1.00;;;;;;4993728;28;20190;-73
2022/11/12 11:00:36;;;;;;;4.55;4.15;;;24.20;1.00;;;;;;4993728;28;20183;-72
2022/11/12 11:03:15;;;;;;;4.60;4.20;;;24.50;1.00;;;;;;4994220;28;20198;-72
2022/11/12 11:05:57;;;;;;;4.80;4.03;;;23.50;1.00;;;;;;4993979;28;20172;-71
2022/11/12 11:08:34;;;;;;;3.92;3.60;;;23.40;71.60;;;;;;4994013;28;20295;-72
2022/11/12 11:11:18;;;;;;;4.55;4.20;;;22.10;76.00;;;;;;4992516;28;20188;-71
2022/11/12 11:13:45;;;;;;;4.22;3.92;;;22.00;78.00;;;;;;4993814;28;20202;-71
2022/11/12 11:16:19;;;;;;;3.83;3.58;;;21.90;80.60;;;;;;4993549;28;20175;-72
2022/11/12 11:19:12;;;;;;;4.53;4.13;;;21.40;80.30;;;;;;4993568;28;20175;-70
2022/11/12 11:22:11;;;;;;;4.53;4.20;;;22.50;79.80;;;;;;4992648;28;20603;-71
2022/11/12 11:24:55;;;;;;;3.92;3.72;;;22.70;78.30;;;;;;4993157;28;20254;-70
2022/11/12 11:27:45;;;;;;;4.10;3.80;;;22.60;77.80;;;;;;4991521;28;20687;-71
2022/11/12 11:30:18;;;;;;;5.03;4.45;;;22.20;81.10;;;;;;4993372;28;20183;-71
2022/11/12 11:33:04;;;;;;;4.28;3.85;;;22.00;80.80;;;;;;4993426;28;20163;-69
2022/11/12 11:35:55;;;;;;;5.10;4.60;;;21.50;84.30;;;;;;4993061;28;20222;-70
2022/11/12 11:38:21;;;;;;;4.32;4.00;;;21.40;86.00;;;;;;4993901;28;20174;-70
2022/11/12 11:40:52;;;;;;;7.90;5.18;;;21.40;87.20;;;;;;4992689;28;20167;-70
2022/11/12 11:43:26;;;;;;;4.85;4.45;;;21.90;85.70;;;;;;4993150;28;20175;-70
2022/11/12 11:45:55;;;;;;;5.43;4.60;;;21.70;87.60;;;;;;4993488;28;20170;-70
2022/11/12 11:48:23;;;;;;;6.90;4.80;;;21.90;84.50;;;;;;4993333;28;20211;-69
2022/11/12 11:51:27;;;;;;;4.68;4.38;;;21.90;85.40;;;;;;4992920;28;20218;-69
2022/11/12 11:54:09;;;;;;;4.93;4.45;;;21.40;87.30;;;;;;4986775;28;20183;-70
2022/11/12 11:56:42;;;;;;;4.97;4.32;;;21.30;88.00;;;;;;4992492;28;20163;-70
2022/11/12 11:59:26;;;;;;;7.35;5.20;;;21.20;90.10;;;;;;4992170;28;20509;-70
2022/11/12 12:02:16;;;;;;;5.75;4.38;;;21.10;90.70;;;;;;4992621;28;20636;-70
2022/11/12 12:04:49;;;;;;;5.45;4.70;;;21.50;90.20;;;;;;4992878;28;20631;-70
2022/11/12 12:07:15;;;;;;;8.70;5.30;;;20.90;91.60;;;;;;4991313;28;20214;-70
2022/11/12 12:10:02;;;;;;;6.82;5.43;;;21.00;92.10;;;;;;4992935;28;20167;-69
2022/11/12 12:12:36;;;;;;;5.60;5.10;;;21.20;91.30;;;;;;4992926;28;20181;-69
2022/11/12 12:15:28;;;;;;;5.32;4.82;;;21.40;90.90;;;;;;4992810;28;20181;-69
2022/11/12 12:18:25;;;;;;;5.70;5.10;;;21.80;90.10;;;;;;4992873;28;20174;-69
2022/11/12 12:21:02;;;;;;;7.82;4.78;;;21.40;90.90;;;;;;4993537;28;20277;-70
2022/11/12 12:23:56;;;;;;;7.60;5.63;;;20.60;92.50;;;;;;4991871;28;20264;-70
2022/11/12 12:26:24;;;;;;;4.90;4.50;;;20.40;93.30;;;;;;4993028;28;20175;-67
2022/11/12 12:28:56;;;;;;;5.25;4.85;;;19.60;95.00;;;;;;4992594;28;20194;-68
2022/11/12 12:31:29;;;;;;;5.32;4.85;;;19.10;96.50;;;;;;4993125;28;20214;-69
2022/11/12 12:33:57;;;;;;;5.95;5.40;;;18.70;97.90;;;;;;4992701;28;20234;-68
2022/11/12 12:36:37;;;;;;;7.97;5.25;;;18.40;99.40;;;;;;4992164;28;20202;-69
2022/11/12 12:39:18;;;;;;;8.73;7.13;;;18.30;99.90;;;;;;4993115;28;20571;-70
2022/11/12 12:42:05;;;;;;;9.07;6.75;;;18.10;99.90;;;;;;4995650;28;20225;-69
2022/11/12 12:45:03;;;;;;;5.75;5.22;;;18.10;99.90;;;;;;4995309;28;20178;-69
2022/11/12 12:47:35;;;;;;;5.43;5.00;;;18.10;99.90;;;;;;4996536;28;20234;-69
2022/11/12 12:50:06;;;;;;;7.05;6.07;;;18.10;99.90;;;;;;4996041;28;20183;-70
2022/11/12 12:52:57;;;;;;;5.47;4.97;;;18.20;99.90;;;;;;4995359;28;20175;-69
2022/11/12 12:55:36;;;;;;;5.68;4.72;;;18.00;99.90;;;;;;4996237;28;20719;-69
2022/11/12 12:58:02;;;;;;;7.53;5.68;;;17.90;99.90;;;;;;4995856;28;20182;-69
2022/11/12 13:00:45;;;;;;;7.40;5.70;;;17.90;99.90;;;;;;4995931;28;20171;-70
2022/11/12 13:03:11;;;;;;;6.38;5.82;;;17.90;99.90;;;;;;4996030;28;20175;-70
2022/11/12 13:05:39;;;;;;;9.37;6.00;;;17.70;99.90;;;;;;4995945;28;20164;-69
2022/11/12 13:08:24;;;;;;;6.83;6.23;;;17.60;99.90;;;;;;4995790;28;20203;-69
2022/11/12 13:10:51;;;;;;;6.70;5.93;;;17.80;99.90;;;;;;4996022;28;20674;-69
2022/11/12 13:13:16;;;;;;;9.80;7.40;;;17.60;99.90;;;;;;4995509;28;20175;-69
2022/11/12 13:15:44;;;;;;;6.93;6.22;;;17.40;99.90;;;;;;4995821;28;20172;-69
2022/11/12 13:18:10;;;;;;;9.67;6.37;;;17.50;99.90;;;;;;4994912;28;20302;-68
2022/11/12 13:20:40;;;;;;;10.30;7.57;;;17.50;99.90;;;;;;4995626;28;20667;-69